ALK104 VRMM-VCBI
Flight info
| Callsign | ALK104 |
|---|---|
| Flight time | 1h 10m |
| Altitude | 37000 |
| Route | HOKEY1A HOKEY M512 TELIG LALUM1A |
| Aircraft | A20N/M-SDE2E3FGHIRWXY/LB1 |
Departure
| Time | 2026-04-27 13:16 |
|---|---|
| Airport | Velana International Airport (VRMM) |
Arrival
| Time | 2026-04-27 14:27 |
|---|---|
| Airport | Bandaranaike International Colombo Airport (VCBI) |
| Time | Latitude | Longitude | Altitude | Speed | Heading |
|---|---|---|---|---|---|
| 2026-04-27 13:01 | 4.18872 | 73.52795 | 15 ft | 0 kts | 269° |
| 2026-04-27 13:09 | 4.18872 | 73.52803 | 15 ft | 3 kts | 269° |
| 2026-04-27 13:10 | 4.18873 | 73.52822 | 16 ft | 3 kts | 260° |
| 2026-04-27 13:10 | 4.18881 | 73.52839 | 17 ft | 3 kts | 218° |
| 2026-04-27 13:10 | 4.18897 | 73.52847 | 16 ft | 0 kts | 179° |
| 2026-04-27 13:13 | 4.18895 | 73.52847 | 16 ft | 2 kts | 178° |
| 2026-04-27 13:13 | 4.18859 | 73.52850 | 16 ft | 9 kts | 175° |
| 2026-04-27 13:13 | 4.18787 | 73.52853 | 15 ft | 11 kts | 179° |
| 2026-04-27 13:14 | 4.18713 | 73.52854 | 15 ft | 11 kts | 179° |
| 2026-04-27 13:14 | 4.18638 | 73.52857 | 18 ft | 11 kts | 165° |
| 2026-04-27 13:14 | 4.18603 | 73.52909 | 15 ft | 4 kts | 130° |
| 2026-04-27 13:14 | 4.18572 | 73.52928 | 16 ft | 7 kts | 147° |
| 2026-04-27 13:15 | 4.18549 | 73.52979 | 15 ft | 6 kts | 94° |
| 2026-04-27 13:15 | 4.18547 | 73.53010 | 16 ft | 5 kts | 91° |
| 2026-04-27 13:15 | 4.18539 | 73.53075 | 17 ft | 12 kts | 89° |
| 2026-04-27 13:15 | 4.18634 | 73.53102 | 16 ft | 33 kts | 0° |
| 2026-04-27 13:16 | 4.19105 | 73.53101 | 18 ft | 101 kts | 0° |
| 2026-04-27 13:16 | 4.20006 | 73.53100 | 19 ft | 155 kts | 360° |
| 2026-04-27 13:16 | 4.21119 | 73.53131 | 402 ft | 163 kts | 0° |
| 2026-04-27 13:16 | 4.22246 | 73.53172 | 973 ft | 160 kts | 358° |
| 2026-04-27 13:17 | 4.23366 | 73.53163 | 1562 ft | 161 kts | 355° |
| 2026-04-27 13:17 | 4.24571 | 73.53106 | 1966 ft | 191 kts | 356° |
| 2026-04-27 13:17 | 4.26034 | 73.53078 | 2257 ft | 227 kts | 358° |
| 2026-04-27 13:17 | 4.27713 | 73.53072 | 2709 ft | 251 kts | 359° |
| 2026-04-27 13:18 | 4.29501 | 73.53071 | 3413 ft | 261 kts | 359° |
| 2026-04-27 13:18 | 4.31336 | 73.53072 | 4214 ft | 266 kts | 359° |
| 2026-04-27 13:18 | 4.33197 | 73.53072 | 5050 ft | 269 kts | 359° |
| 2026-04-27 13:18 | 4.35084 | 73.53072 | 5859 ft | 273 kts | 360° |
| 2026-04-27 13:19 | 4.36997 | 73.53071 | 6645 ft | 277 kts | 0° |
| 2026-04-27 13:19 | 4.38921 | 73.53251 | 7409 ft | 280 kts | 14° |
| 2026-04-27 13:19 | 4.40662 | 73.54107 | 8191 ft | 282 kts | 39° |
| 2026-04-27 13:19 | 4.41853 | 73.55659 | 9001 ft | 285 kts | 66° |
| 2026-04-27 13:20 | 4.42272 | 73.57603 | 9783 ft | 289 kts | 85° |
| 2026-04-27 13:20 | 4.42310 | 73.59637 | 10390 ft | 298 kts | 89° |
| 2026-04-27 13:20 | 4.42282 | 73.61775 | 10706 ft | 316 kts | 90° |
| 2026-04-27 13:20 | 4.42254 | 73.64021 | 11161 ft | 327 kts | 90° |
| 2026-04-27 13:21 | 4.42237 | 73.66319 | 11776 ft | 332 kts | 90° |
| 2026-04-27 13:21 | 4.42226 | 73.68641 | 12448 ft | 335 kts | 89° |
| 2026-04-27 13:21 | 4.42220 | 73.70985 | 13138 ft | 337 kts | 89° |
| 2026-04-27 13:21 | 4.42217 | 73.73345 | 13802 ft | 340 kts | 89° |
| 2026-04-27 13:22 | 4.42258 | 73.75721 | 14405 ft | 343 kts | 85° |
| 2026-04-27 13:22 | 4.42596 | 73.78096 | 15015 ft | 346 kts | 78° |
| 2026-04-27 13:22 | 4.43106 | 73.80465 | 15627 ft | 349 kts | 77° |
| 2026-04-27 13:22 | 4.43653 | 73.82842 | 16235 ft | 352 kts | 77° |
| 2026-04-27 13:23 | 4.44305 | 73.85212 | 16851 ft | 355 kts | 71° |
| 2026-04-27 13:23 | 4.45100 | 73.87561 | 17442 ft | 358 kts | 70° |
| 2026-04-27 13:23 | 4.45930 | 73.89920 | 18026 ft | 360 kts | 70° |
| 2026-04-27 13:23 | 4.46780 | 73.92296 | 18498 ft | 363 kts | 70° |
| 2026-04-27 13:24 | 4.47642 | 73.94687 | 18951 ft | 366 kts | 70° |
| 2026-04-27 13:24 | 4.48514 | 73.97094 | 19412 ft | 369 kts | 70° |
| 2026-04-27 13:24 | 4.49394 | 73.99521 | 19858 ft | 372 kts | 70° |
| 2026-04-27 13:24 | 4.50284 | 74.01969 | 20316 ft | 375 kts | 70° |
| 2026-04-27 13:25 | 4.51181 | 74.04432 | 20779 ft | 378 kts | 69° |
| 2026-04-27 13:25 | 4.52083 | 74.06911 | 21254 ft | 380 kts | 69° |
| 2026-04-27 13:25 | 4.52992 | 74.09412 | 21729 ft | 383 kts | 69° |
| 2026-04-27 13:25 | 4.53907 | 74.11928 | 22203 ft | 386 kts | 69° |
| 2026-04-27 13:26 | 4.54829 | 74.14467 | 22700 ft | 389 kts | 69° |
| 2026-04-27 13:26 | 4.55757 | 74.17020 | 23179 ft | 392 kts | 69° |
| 2026-04-27 13:26 | 4.56692 | 74.19595 | 23616 ft | 395 kts | 69° |
| 2026-04-27 13:26 | 4.57623 | 74.22159 | 23994 ft | 398 kts | 69° |
| 2026-04-27 13:27 | 4.58573 | 74.24774 | 24384 ft | 401 kts | 70° |
| 2026-04-27 13:27 | 4.59531 | 74.27414 | 24764 ft | 404 kts | 70° |
| 2026-04-27 13:27 | 4.60495 | 74.30071 | 25145 ft | 407 kts | 70° |
| 2026-04-27 13:27 | 4.61467 | 74.32749 | 25518 ft | 411 kts | 70° |
| 2026-04-27 13:28 | 4.62447 | 74.35448 | 25885 ft | 414 kts | 70° |
| 2026-04-27 13:28 | 4.63434 | 74.38167 | 26254 ft | 416 kts | 70° |
| 2026-04-27 13:28 | 4.64426 | 74.40903 | 26602 ft | 419 kts | 70° |
| 2026-04-27 13:28 | 4.65425 | 74.43655 | 26948 ft | 422 kts | 70° |
| 2026-04-27 13:29 | 4.66432 | 74.46433 | 27294 ft | 425 kts | 71° |
| 2026-04-27 13:29 | 4.67444 | 74.49222 | 27621 ft | 427 kts | 71° |
| 2026-04-27 13:29 | 4.68463 | 74.52032 | 27946 ft | 430 kts | 71° |
| 2026-04-27 13:29 | 4.69488 | 74.54860 | 28267 ft | 433 kts | 71° |
| 2026-04-27 13:30 | 4.70519 | 74.57706 | 28583 ft | 436 kts | 71° |
| 2026-04-27 13:30 | 4.71544 | 74.60534 | 28889 ft | 438 kts | 71° |
| 2026-04-27 13:30 | 4.72589 | 74.63418 | 29188 ft | 441 kts | 71° |
| 2026-04-27 13:30 | 4.73636 | 74.66307 | 29496 ft | 443 kts | 71° |
| 2026-04-27 13:31 | 4.74694 | 74.69227 | 29800 ft | 446 kts | 71° |
| 2026-04-27 13:31 | 4.75756 | 74.72160 | 30065 ft | 449 kts | 71° |
| 2026-04-27 13:31 | 4.76823 | 74.75106 | 30319 ft | 450 kts | 71° |
| 2026-04-27 13:31 | 4.77893 | 74.78061 | 30590 ft | 452 kts | 71° |
| 2026-04-27 13:32 | 4.78966 | 74.81029 | 30856 ft | 454 kts | 71° |
| 2026-04-27 13:32 | 4.80044 | 74.84010 | 31116 ft | 455 kts | 71° |
| 2026-04-27 13:32 | 4.81126 | 74.86995 | 31374 ft | 457 kts | 71° |
| 2026-04-27 13:32 | 4.82210 | 74.89990 | 31691 ft | 457 kts | 71° |
| 2026-04-27 13:33 | 4.83292 | 74.92978 | 32054 ft | 455 kts | 72° |
| 2026-04-27 13:33 | 4.84370 | 74.95959 | 32420 ft | 454 kts | 72° |
| 2026-04-27 13:33 | 4.85447 | 74.98935 | 32758 ft | 453 kts | 72° |
| 2026-04-27 13:33 | 4.86520 | 75.01904 | 33091 ft | 453 kts | 72° |
| 2026-04-27 13:34 | 4.87591 | 75.04865 | 33434 ft | 452 kts | 72° |
| 2026-04-27 13:34 | 4.88662 | 75.07827 | 33762 ft | 451 kts | 72° |
| 2026-04-27 13:34 | 4.89729 | 75.10778 | 34048 ft | 450 kts | 72° |
| 2026-04-27 13:34 | 4.90794 | 75.13727 | 34343 ft | 449 kts | 72° |
| 2026-04-27 13:35 | 4.91854 | 75.16664 | 34645 ft | 447 kts | 72° |
| 2026-04-27 13:35 | 4.92911 | 75.19595 | 34939 ft | 446 kts | 72° |
| 2026-04-27 13:35 | 4.93964 | 75.22514 | 35219 ft | 445 kts | 72° |
| 2026-04-27 13:35 | 4.95017 | 75.25428 | 35492 ft | 444 kts | 72° |
| 2026-04-27 13:36 | 4.96068 | 75.28335 | 35768 ft | 443 kts | 72° |
| 2026-04-27 13:36 | 4.97116 | 75.31237 | 36030 ft | 442 kts | 72° |
| 2026-04-27 13:36 | 4.98162 | 75.34132 | 36273 ft | 441 kts | 72° |
| 2026-04-27 13:36 | 4.99204 | 75.37019 | 36513 ft | 440 kts | 72° |
| 2026-04-27 13:37 | 5.00246 | 75.39906 | 36756 ft | 440 kts | 72° |
| 2026-04-27 13:37 | 5.01284 | 75.42782 | 36830 ft | 437 kts | 72° |
| 2026-04-27 13:37 | 5.03333 | 75.48460 | 36838 ft | 431 kts | 72° |
| 2026-04-27 13:38 | 5.05367 | 75.54102 | 36842 ft | 430 kts | 72° |
| 2026-04-27 13:38 | 5.07400 | 75.59741 | 36842 ft | 430 kts | 72° |
| 2026-04-27 13:39 | 5.09432 | 75.65378 | 36840 ft | 430 kts | 72° |
| 2026-04-27 13:39 | 5.11463 | 75.71013 | 36841 ft | 430 kts | 72° |
| 2026-04-27 13:40 | 5.13150 | 75.75695 | 36839 ft | 429 kts | 72° |
| 2026-04-27 13:40 | 5.15179 | 75.81328 | 36839 ft | 429 kts | 72° |
| 2026-04-27 13:41 | 5.17208 | 75.86961 | 36840 ft | 429 kts | 72° |
| 2026-04-27 13:41 | 5.19234 | 75.92591 | 36843 ft | 429 kts | 72° |
| 2026-04-27 13:42 | 5.21260 | 75.98220 | 36842 ft | 429 kts | 72° |
| 2026-04-27 13:42 | 5.23614 | 76.04764 | 36838 ft | 429 kts | 72° |
| 2026-04-27 13:43 | 5.25311 | 76.09482 | 36842 ft | 429 kts | 72° |
| 2026-04-27 13:43 | 5.27337 | 76.15118 | 36844 ft | 429 kts | 72° |
| 2026-04-27 13:44 | 5.29363 | 76.20751 | 36842 ft | 429 kts | 72° |
| 2026-04-27 13:44 | 5.31388 | 76.26386 | 36840 ft | 429 kts | 72° |
| 2026-04-27 13:45 | 5.33412 | 76.32020 | 36843 ft | 429 kts | 72° |
| 2026-04-27 13:45 | 5.35423 | 76.37620 | 36843 ft | 429 kts | 72° |
| 2026-04-27 13:46 | 5.37448 | 76.43262 | 36842 ft | 430 kts | 72° |
| 2026-04-27 13:46 | 5.39473 | 76.48906 | 36842 ft | 430 kts | 72° |
| 2026-04-27 13:47 | 5.41498 | 76.54551 | 36843 ft | 430 kts | 72° |
| 2026-04-27 13:47 | 5.43525 | 76.60204 | 36847 ft | 430 kts | 71° |
| 2026-04-27 13:48 | 5.45554 | 76.65856 | 36850 ft | 431 kts | 71° |
| 2026-04-27 13:48 | 5.47589 | 76.71511 | 36848 ft | 431 kts | 71° |
| 2026-04-27 13:49 | 5.49619 | 76.77171 | 36846 ft | 431 kts | 71° |
| 2026-04-27 13:49 | 5.51637 | 76.82835 | 36848 ft | 431 kts | 71° |
| 2026-04-27 13:50 | 5.53661 | 76.88505 | 36849 ft | 431 kts | 71° |
| 2026-04-27 13:50 | 5.55689 | 76.94173 | 36850 ft | 431 kts | 71° |
| 2026-04-27 13:51 | 5.57719 | 76.99842 | 36850 ft | 432 kts | 71° |
| 2026-04-27 13:51 | 5.59748 | 77.05512 | 36847 ft | 432 kts | 71° |
| 2026-04-27 13:52 | 5.61785 | 77.11181 | 36845 ft | 432 kts | 71° |
| 2026-04-27 13:52 | 5.63818 | 77.16851 | 36844 ft | 432 kts | 71° |
| 2026-04-27 13:53 | 5.66863 | 77.25362 | 36846 ft | 432 kts | 71° |
| 2026-04-27 13:54 | 5.68886 | 77.31036 | 36846 ft | 432 kts | 71° |
| 2026-04-27 13:54 | 5.70904 | 77.36712 | 36847 ft | 432 kts | 71° |
| 2026-04-27 13:55 | 5.72928 | 77.42386 | 36847 ft | 432 kts | 71° |
| 2026-04-27 13:55 | 5.74954 | 77.48058 | 36852 ft | 431 kts | 71° |
| 2026-04-27 13:56 | 5.76976 | 77.53725 | 36848 ft | 431 kts | 71° |
| 2026-04-27 13:56 | 5.78998 | 77.59399 | 36846 ft | 431 kts | 71° |
| 2026-04-27 13:57 | 5.81017 | 77.65066 | 36847 ft | 431 kts | 71° |
| 2026-04-27 13:57 | 5.83038 | 77.70737 | 36844 ft | 431 kts | 71° |
| 2026-04-27 13:58 | 5.85059 | 77.76405 | 36846 ft | 431 kts | 71° |
| 2026-04-27 13:58 | 5.87084 | 77.82071 | 36845 ft | 431 kts | 71° |
| 2026-04-27 13:59 | 5.89105 | 77.87747 | 36848 ft | 431 kts | 71° |
| 2026-04-27 13:59 | 5.91134 | 77.93446 | 36845 ft | 436 kts | 71° |
| 2026-04-27 14:00 | 5.93185 | 77.99203 | 36845 ft | 438 kts | 71° |
| 2026-04-27 14:00 | 5.95241 | 78.04974 | 36847 ft | 438 kts | 71° |
| 2026-04-27 14:01 | 5.97291 | 78.10740 | 36803 ft | 439 kts | 71° |
| 2026-04-27 14:01 | 5.98317 | 78.13623 | 36310 ft | 438 kts | 71° |
| 2026-04-27 14:01 | 5.99341 | 78.16510 | 35708 ft | 439 kts | 71° |
| 2026-04-27 14:01 | 6.00365 | 78.19416 | 35012 ft | 443 kts | 71° |
| 2026-04-27 14:02 | 6.01396 | 78.22342 | 34322 ft | 446 kts | 71° |
| 2026-04-27 14:02 | 6.02439 | 78.25292 | 33636 ft | 449 kts | 71° |
| 2026-04-27 14:02 | 6.03481 | 78.28233 | 33116 ft | 445 kts | 71° |
| 2026-04-27 14:02 | 6.04515 | 78.31149 | 32616 ft | 441 kts | 71° |
| 2026-04-27 14:03 | 6.05541 | 78.34043 | 32114 ft | 438 kts | 70° |
| 2026-04-27 14:03 | 6.06561 | 78.36922 | 31613 ft | 435 kts | 70° |
| 2026-04-27 14:03 | 6.07571 | 78.39771 | 31119 ft | 432 kts | 70° |
| 2026-04-27 14:03 | 6.08577 | 78.42609 | 30620 ft | 430 kts | 70° |
| 2026-04-27 14:04 | 6.09578 | 78.45432 | 30110 ft | 428 kts | 70° |
| 2026-04-27 14:04 | 6.10573 | 78.48241 | 29553 ft | 426 kts | 70° |
| 2026-04-27 14:04 | 6.11564 | 78.51039 | 29026 ft | 422 kts | 70° |
| 2026-04-27 14:04 | 6.12544 | 78.53804 | 28522 ft | 419 kts | 70° |
| 2026-04-27 14:05 | 6.13740 | 78.56464 | 27967 ft | 417 kts | 58° |
| 2026-04-27 14:05 | 6.15552 | 78.58701 | 27498 ft | 413 kts | 43° |
| 2026-04-27 14:05 | 6.17720 | 78.60527 | 26987 ft | 411 kts | 38° |
| 2026-04-27 14:05 | 6.20012 | 78.62291 | 26475 ft | 408 kts | 38° |
| 2026-04-27 14:06 | 6.22266 | 78.64010 | 25981 ft | 405 kts | 38° |
| 2026-04-27 14:06 | 6.24499 | 78.65721 | 25480 ft | 403 kts | 38° |
| 2026-04-27 14:06 | 6.26689 | 78.67406 | 24984 ft | 400 kts | 38° |
| 2026-04-27 14:06 | 6.28922 | 78.69129 | 24475 ft | 398 kts | 38° |
| 2026-04-27 14:07 | 6.31081 | 78.70798 | 23983 ft | 396 kts | 38° |
| 2026-04-27 14:07 | 6.33255 | 78.72482 | 23480 ft | 394 kts | 38° |
| 2026-04-27 14:07 | 6.35421 | 78.74160 | 22894 ft | 392 kts | 38° |
| 2026-04-27 14:07 | 6.37565 | 78.75823 | 22399 ft | 387 kts | 38° |
| 2026-04-27 14:08 | 6.39683 | 78.77465 | 21904 ft | 382 kts | 39° |
| 2026-04-27 14:08 | 6.41652 | 78.79239 | 21367 ft | 378 kts | 48° |
| 2026-04-27 14:08 | 6.43345 | 78.81232 | 20941 ft | 372 kts | 51° |
| 2026-04-27 14:08 | 6.44951 | 78.83249 | 20463 ft | 368 kts | 52° |
| 2026-04-27 14:09 | 6.46531 | 78.85255 | 19992 ft | 364 kts | 52° |
| 2026-04-27 14:09 | 6.48101 | 78.87238 | 19514 ft | 361 kts | 52° |
| 2026-04-27 14:09 | 6.49660 | 78.89206 | 19035 ft | 358 kts | 52° |
| 2026-04-27 14:09 | 6.51203 | 78.91160 | 18559 ft | 356 kts | 52° |
| 2026-04-27 14:10 | 6.52735 | 78.93100 | 18100 ft | 353 kts | 52° |
| 2026-04-27 14:10 | 6.54257 | 78.95025 | 17593 ft | 349 kts | 52° |
| 2026-04-27 14:10 | 6.55757 | 78.96920 | 17135 ft | 344 kts | 52° |
| 2026-04-27 14:10 | 6.57239 | 78.98789 | 16698 ft | 340 kts | 52° |
| 2026-04-27 14:11 | 6.58705 | 79.00635 | 16249 ft | 336 kts | 52° |
| 2026-04-27 14:11 | 6.60153 | 79.02460 | 15801 ft | 332 kts | 52° |
| 2026-04-27 14:11 | 6.61585 | 79.04265 | 15359 ft | 328 kts | 52° |
| 2026-04-27 14:11 | 6.63003 | 79.06051 | 14926 ft | 325 kts | 52° |
| 2026-04-27 14:12 | 6.64408 | 79.07820 | 14480 ft | 322 kts | 52° |
| 2026-04-27 14:12 | 6.65798 | 79.09571 | 14065 ft | 319 kts | 51° |
| 2026-04-27 14:12 | 6.67175 | 79.11309 | 13643 ft | 316 kts | 52° |
| 2026-04-27 14:12 | 6.68532 | 79.13034 | 13193 ft | 313 kts | 52° |
| 2026-04-27 14:13 | 6.69872 | 79.14735 | 12788 ft | 308 kts | 52° |
| 2026-04-27 14:13 | 6.71196 | 79.16414 | 12381 ft | 304 kts | 52° |
| 2026-04-27 14:13 | 6.72509 | 79.18076 | 11980 ft | 302 kts | 52° |
| 2026-04-27 14:13 | 6.73815 | 79.19729 | 11571 ft | 301 kts | 52° |
| 2026-04-27 14:14 | 6.75111 | 79.21369 | 11267 ft | 297 kts | 52° |
| 2026-04-27 14:14 | 6.76391 | 79.22987 | 10911 ft | 295 kts | 52° |
| 2026-04-27 14:14 | 6.77668 | 79.24602 | 10515 ft | 295 kts | 52° |
| 2026-04-27 14:14 | 6.78943 | 79.26216 | 10121 ft | 295 kts | 52° |
| 2026-04-27 14:15 | 6.80208 | 79.27815 | 9857 ft | 288 kts | 52° |
| 2026-04-27 14:15 | 6.81448 | 79.29385 | 9480 ft | 286 kts | 52° |
| 2026-04-27 14:15 | 6.82682 | 79.30946 | 9093 ft | 284 kts | 52° |
| 2026-04-27 14:15 | 6.83908 | 79.32495 | 8729 ft | 282 kts | 52° |
| 2026-04-27 14:16 | 6.85125 | 79.34033 | 8375 ft | 280 kts | 52° |
| 2026-04-27 14:16 | 6.86334 | 79.35563 | 8003 ft | 278 kts | 52° |
| 2026-04-27 14:16 | 6.87534 | 79.37080 | 7651 ft | 277 kts | 52° |
| 2026-04-27 14:16 | 6.88729 | 79.38593 | 7287 ft | 275 kts | 52° |
| 2026-04-27 14:17 | 6.89918 | 79.40098 | 6939 ft | 274 kts | 52° |
| 2026-04-27 14:17 | 6.91101 | 79.41596 | 6587 ft | 273 kts | 52° |
| 2026-04-27 14:17 | 6.92280 | 79.43087 | 6212 ft | 272 kts | 52° |
| 2026-04-27 14:17 | 6.93364 | 79.44645 | 5885 ft | 272 kts | 63° |
| 2026-04-27 14:18 | 6.94022 | 79.46424 | 5697 ft | 273 kts | 73° |
| 2026-04-27 14:18 | 6.94509 | 79.48269 | 5490 ft | 273 kts | 76° |
| 2026-04-27 14:18 | 6.94965 | 79.50123 | 5287 ft | 272 kts | 76° |
| 2026-04-27 14:18 | 6.95417 | 79.51967 | 5075 ft | 271 kts | 76° |
| 2026-04-27 14:19 | 6.95872 | 79.53808 | 4856 ft | 271 kts | 76° |
| 2026-04-27 14:19 | 6.96329 | 79.55649 | 4660 ft | 271 kts | 76° |
| 2026-04-27 14:19 | 6.96789 | 79.57487 | 4435 ft | 271 kts | 75° |
| 2026-04-27 14:19 | 6.97265 | 79.59317 | 4251 ft | 267 kts | 75° |
| 2026-04-27 14:20 | 6.97730 | 79.61084 | 4082 ft | 256 kts | 75° |
| 2026-04-27 14:20 | 6.98178 | 79.62785 | 3892 ft | 247 kts | 75° |
| 2026-04-27 14:20 | 6.98611 | 79.64428 | 3688 ft | 239 kts | 75° |
| 2026-04-27 14:20 | 6.99030 | 79.66017 | 3515 ft | 232 kts | 75° |
| 2026-04-27 14:21 | 6.99437 | 79.67562 | 3342 ft | 226 kts | 75° |
| 2026-04-27 14:21 | 6.99840 | 79.69091 | 3168 ft | 226 kts | 75° |
| 2026-04-27 14:21 | 7.00246 | 79.70622 | 2993 ft | 227 kts | 75° |
| 2026-04-27 14:21 | 7.00651 | 79.72152 | 2811 ft | 226 kts | 75° |
| 2026-04-27 14:22 | 7.01057 | 79.73681 | 2648 ft | 226 kts | 76° |
| 2026-04-27 14:22 | 7.01552 | 79.75177 | 2460 ft | 226 kts | 63° |
| 2026-04-27 14:22 | 7.02541 | 79.76395 | 2235 ft | 223 kts | 41° |
| 2026-04-27 14:22 | 7.03738 | 79.77367 | 2006 ft | 219 kts | 38° |
| 2026-04-27 14:23 | 7.04904 | 79.78233 | 1931 ft | 204 kts | 37° |
| 2026-04-27 14:23 | 7.06018 | 79.79074 | 1793 ft | 192 kts | 38° |
| 2026-04-27 14:23 | 7.07043 | 79.79865 | 1694 ft | 179 kts | 38° |
| 2026-04-27 14:23 | 7.08005 | 79.80603 | 1581 ft | 168 kts | 38° |
| 2026-04-27 14:24 | 7.08904 | 79.81291 | 1485 ft | 156 kts | 38° |
| 2026-04-27 14:24 | 7.09738 | 79.81930 | 1491 ft | 152 kts | 38° |
| 2026-04-27 14:24 | 7.10579 | 79.82578 | 1491 ft | 153 kts | 38° |
| 2026-04-27 14:24 | 7.11424 | 79.83231 | 1364 ft | 149 kts | 39° |
| 2026-04-27 14:25 | 7.12223 | 79.83846 | 1157 ft | 141 kts | 38° |
| 2026-04-27 14:25 | 7.13001 | 79.84444 | 972 ft | 141 kts | 38° |
| 2026-04-27 14:25 | 7.13775 | 79.85041 | 804 ft | 140 kts | 38° |
| 2026-04-27 14:25 | 7.14539 | 79.85629 | 647 ft | 137 kts | 38° |
| 2026-04-27 14:26 | 7.15049 | 79.86022 | 524 ft | 136 kts | 38° |
| 2026-04-27 14:26 | 7.16048 | 79.86791 | 285 ft | 137 kts | 39° |
| 2026-04-27 14:26 | 7.16555 | 79.87183 | 158 ft | 136 kts | 40° |
| 2026-04-27 14:26 | 7.17296 | 79.87765 | 32 ft | 126 kts | 32° |
| 2026-04-27 14:27 | 7.17872 | 79.88192 | 32 ft | 87 kts | 38° |
| 2026-04-27 14:27 | 7.18227 | 79.88462 | 30 ft | 53 kts | 37° |
| 2026-04-27 14:27 | 7.18513 | 79.88672 | 31 ft | 49 kts | 39° |
| 2026-04-27 14:27 | 7.18680 | 79.88835 | 32 ft | 21 kts | 92° |
| 2026-04-27 14:28 | 7.18652 | 79.88896 | 32 ft | 0 kts | 127° |
| 2026-04-27 14:28 | 7.18645 | 79.88905 | 32 ft | 4 kts | 126° |
| 2026-04-27 14:28 | 7.18621 | 79.88937 | 31 ft | 7 kts | 134° |
| 2026-04-27 14:29 | 7.18561 | 79.88940 | 31 ft | 12 kts | 209° |
| 2026-04-27 14:29 | 7.18476 | 79.88876 | 31 ft | 18 kts | 217° |
| 2026-04-27 14:29 | 7.18356 | 79.88786 | 30 ft | 25 kts | 216° |
| 2026-04-27 14:29 | 7.18219 | 79.88680 | 30 ft | 25 kts | 217° |
| 2026-04-27 14:30 | 7.18082 | 79.88575 | 30 ft | 25 kts | 217° |
| 2026-04-27 14:30 | 7.17976 | 79.88494 | 31 ft | 16 kts | 217° |
| 2026-04-27 14:30 | 7.17880 | 79.88435 | 30 ft | 16 kts | 181° |
| 2026-04-27 14:30 | 7.17803 | 79.88507 | 30 ft | 16 kts | 127° |
| 2026-04-27 14:31 | 7.17742 | 79.88591 | 30 ft | 12 kts | 126° |
| 2026-04-27 14:31 | 7.17682 | 79.88616 | 30 ft | 10 kts | 212° |
| 2026-04-27 14:31 | 7.17631 | 79.88579 | 30 ft | 0 kts | 217° |
| 2026-04-27 14:31 | 7.17626 | 79.88576 | 30 ft | 6 kts | 214° |
| 2026-04-27 14:32 | 7.17622 | 79.88572 | 30 ft | 0 kts | 216° |